High Wych Weather

NOAA Style Reports for High Wych, Hertfordshire


Report for 2012 Apr
                   Monthly Climatological Summary for Apr 2012

Name: High Wych Weather   City: High Wych, Sawbridgeworth   State: Herts
Elevation: 72 m  Lat: N 51° 48' 26"   Lon: E 000° 07' 20"

                  Temperature (°C), Rain (mm), Wind Speed (mph)

                                      Heat  Cool        Avg
    Mean                              Deg   Deg         Wind                 Dom
Day Temp  High   Time   Low    Time   Days  Days  Rain  Speed High   Time    Dir
----------------------------------------------------------------------------------
 1   6.4  14.7   00:00  -1.9   00:00   0.0   0.0   0.0  ----  10.8   00:00   ---
 2   8.6  17.3   00:00  -0.1   00:00   0.0   0.0   0.0  ----  11.4   00:00   ---
 3   9.2  16.2   00:00   2.2   00:00   0.0   0.0   3.3  ----   9.1   00:00   ---
 4   5.9   6.7   00:00   5.0   00:00   0.0   0.0   1.5  ----  13.3   00:00   ---
 5   5.6  10.9   00:00   0.3   00:00   0.0   0.0   0.0  ----  13.3   00:00   ---
 6   4.8  14.0   00:00  -4.5   06:16   0.0   0.0   0.0  ----   9.1   00:00   ---
 7   6.7  10.6   00:00   2.7   00:00   0.0   0.0   0.0  ----  13.3   00:00   ---
 8   9.3  14.3   00:00   4.3   00:00   0.0   0.0   0.5  ----   9.1   00:00   ---
 9   9.8  12.1   00:00   7.4   00:00   0.0   0.0   5.3  ----  16.3   00:00   ---
10   8.8  15.6   00:00   1.9   00:00   0.0   0.0   0.3  ----  19.4   00:00   ---
11   8.2  16.2   00:00   0.1   00:00   0.0   0.0   0.5  ----   9.7   00:00   ---
12   7.3  14.3   00:00   0.4   00:00   0.0   0.0   6.9  ----  11.4   00:00   ---
13   9.0  15.7   00:00   2.3   00:00   0.0   0.0   0.0  ----   7.8   00:00   ---
14   7.4  11.9   00:00   2.9   00:00   0.0   0.0   0.0  ----  15.6   00:00   ---
15   5.3  10.3   00:00   0.3   00:00   0.0   0.0   0.0  ----  21.7   00:00   ---
16   4.9  12.4   00:00  -2.6   00:00   0.0   0.0   0.0  ----  10.3   00:00   ---
17   9.0  14.7   00:00   3.3   00:00   0.0   0.0   2.3  ----  17.5   00:00   ---
18   8.1  12.1   00:00   4.0   00:00   0.0   0.0   3.0  ----  22.3   00:00   ---
19   9.3  13.1   00:00   5.5   00:00   0.0   0.0   7.6  ----   9.1   00:00   ---
20   9.9  17.0   00:00   2.8   00:00   0.0   0.0   2.3  ----   9.1   00:00   ---
21   8.4  16.5   00:00   0.3   00:00   0.0   0.0   0.0  ----   9.7   00:00   ---
22   9.8  17.4   00:00   2.3   00:00   0.0   0.0   0.0  ----  13.3   00:00   ---
23   8.9  14.0   00:00   3.9   00:00   0.0   0.0   4.6  ----  13.9   00:00   ---
24   9.1  13.5   00:00   4.7   00:00   0.0   0.0   1.8  ----  15.6   00:00   ---
25   7.8  11.6   00:00   3.9   00:00   0.0   0.0  15.0  ----  17.5   00:00   ---
26  12.1  15.8   00:00   8.4   00:00   0.0   0.0   1.8  ----  24.1   00:00   ---
27  12.6  16.8   00:00   8.4   00:00   0.0   0.0   2.3  ----  13.9   00:00   ---
28   7.2   9.0   00:00   5.3   00:00   0.0   0.0   6.1  ----  22.3   00:00   ---
29   7.5   9.7   00:00   5.3   00:00   0.0   0.0  10.9  ----  23.6   00:00   ---
30  13.1  19.6   00:00   6.6   00:00   0.0   0.0   0.3  ----  17.5   00:00   ---
----------------------------------------------------------------------------------
     8.3  19.6    30    -4.5     6     0.0   0.0  76.3  ----  24.1    26     ---

Max >=  27.0:  0
Max <=   0.0:  0
Min <=   0.0:  4
Min <=  -5.0:  0
Max Rain: 15.0 on day 25
Days of Rain: 19 (>= 0.2 mm)  12 (>= 2.0 mm)  1 (>= 15.0 mm)
Heat Base: 15.0  Cool Base: 15.0  Method: Integration
:now::gauges::console::today/yesterday::month/year::records: noaa reports::annual data::wind map::monthly records::trends::longrange forecast::rainfall radar::webcam